Time;durP1;ratioP1;P1;durP2;ratioP2;P2;SDS_P1;SDS_P2;PMS_P1;PMS_P2;Temp;Humidity;BMP_temperature;BMP_pressure;BME280_temperature;BME280_humidity;BME280_pressure;Samples;Min_cycle;Max_cycle;Signal;HPM_P1;HPM_P2
2023/02/27 00:01:28;;;;;;;24.20;15.30;;;;;;;12.47;65.05;100300.91;107958;1289;21992;-65
2023/02/27 00:03:53;;;;;;;26.20;16.60;;;;;;;12.47;65.20;100298.81;107994;1282;21992;-61
2023/02/27 00:06:19;;;;;;;25.90;16.00;;;;;;;12.46;64.98;100299.00;108029;1289;23615;-61
2023/02/27 00:08:45;;;;;;;26.70;15.90;;;;;;;12.46;65.15;100296.71;107989;1289;21999;-62
2023/02/27 00:11:10;;;;;;;28.00;15.70;;;;;;;12.47;65.10;100295.11;107937;1288;21992;-62
2023/02/27 00:13:38;;;;;;;28.00;15.90;;;;;;;12.48;65.08;100294.04;107947;1289;22464;-64
2023/02/27 00:16:09;;;;;;;24.20;14.30;;;;;;;12.44;64.98;100295.70;108033;1289;21990;-65
2023/02/27 00:18:36;;;;;;;25.00;16.60;;;;;;;12.41;65.05;100302.11;107995;1289;21998;-65
2023/02/27 00:21:05;;;;;;;23.80;16.80;;;;;;;12.37;64.92;100302.00;108052;1289;21999;-61
2023/02/27 00:23:31;;;;;;;27.00;18.50;;;;;;;12.35;65.31;100300.13;107935;1289;21991;-65
2023/02/27 00:26:02;;;;;;;25.90;16.90;;;;;;;12.33;65.26;100297.52;107982;1289;22056;-65
2023/02/27 00:28:33;;;;;;;26.30;15.40;;;;;;;12.31;65.36;100297.57;107934;1289;21996;-65
2023/02/27 00:30:59;;;;;;;27.50;16.40;;;;;;;12.31;65.52;100299.48;108053;1289;22003;-65
2023/02/27 00:33:25;;;;;;;21.40;15.00;;;;;;;12.32;65.39;100301.93;108005;1289;21997;-66
2023/02/27 00:35:58;;;;;;;26.10;16.50;;;;;;;12.31;65.27;100304.08;108002;1289;21994;-65
2023/02/27 00:38:24;;;;;;;27.10;18.30;;;;;;;12.30;65.25;100307.61;108028;1289;21999;-61
2023/02/27 00:40:50;;;;;;;30.40;19.80;;;;;;;12.31;65.39;100304.61;108033;1289;21993;-65
2023/02/27 00:43:16;;;;;;;23.00;15.90;;;;;;;12.31;65.36;100296.87;107984;1289;22004;-65
2023/02/27 00:45:42;;;;;;;23.20;15.10;;;;;;;12.32;65.43;100296.84;108012;1289;22471;-61
2023/02/27 00:48:07;;;;;;;24.10;14.10;;;;;;;12.33;65.54;100297.86;107932;1289;21992;-63
2023/02/27 00:50:33;;;;;;;26.10;15.50;;;;;;;12.33;65.38;100299.29;108001;1289;22036;-65
2023/02/27 00:52:59;;;;;;;24.20;15.40;;;;;;;12.29;65.22;100305.70;107958;1287;21993;-62
2023/02/27 00:55:25;;;;;;;25.30;16.80;;;;;;;12.26;65.40;100309.29;108007;1289;21986;-65
2023/02/27 00:57:51;;;;;;;25.90;17.90;;;;;;;12.21;65.35;100316.77;107950;1289;21993;-63
2023/02/27 01:00:17;;;;;;;23.80;15.50;;;;;;;12.18;65.48;100325.98;107994;1289;22004;-61
2023/02/27 01:02:45;;;;;;;20.50;14.40;;;;;;;12.15;65.37;100326.21;108011;1289;22003;-64
2023/02/27 01:05:13;;;;;;;23.10;14.20;;;;;;;12.14;65.62;100326.58;108008;1289;21987;-65
2023/02/27 01:07:39;;;;;;;22.90;13.30;;;;;;;12.15;65.73;100327.95;108019;1289;21996;-61
2023/02/27 01:10:05;;;;;;;21.30;13.90;;;;;;;12.18;65.77;100330.02;107984;1289;21998;-62
2023/02/27 01:12:32;;;;;;;30.90;16.40;;;;;;;12.20;65.76;100329.09;108069;1289;21996;-66
2023/02/27 01:14:58;;;;;;;24.20;17.20;;;;;;;12.19;65.62;100330.17;108012;1289;22017;-62
2023/02/27 01:17:25;;;;;;;27.00;16.20;;;;;;;12.13;65.67;100325.36;107994;1289;22045;-66
2023/02/27 01:19:52;;;;;;;23.00;14.50;;;;;;;12.05;65.44;100328.69;107958;1289;22004;-66
2023/02/27 01:22:18;;;;;;;21.40;13.80;;;;;;;12.01;65.74;100329.98;108006;1289;22005;-66
2023/02/27 01:24:46;;;;;;;22.80;13.40;;;;;;;12.02;66.02;100335.23;108019;1289;21998;-66
2023/02/27 01:27:11;;;;;;;21.10;14.70;;;;;;;12.05;66.18;100334.83;107955;1289;22270;-64
2023/02/27 01:29:40;;;;;;;23.20;15.60;;;;;;;12.05;66.04;100329.21;107967;1289;22005;-62
2023/02/27 01:32:06;;;;;;;23.20;15.30;;;;;;;12.03;66.12;100333.81;107751;1289;22006;-65
2023/02/27 01:34:32;;;;;;;23.10;13.90;;;;;;;12.00;66.13;100331.76;107981;1289;22015;-62
2023/02/27 01:36:58;;;;;;;23.20;13.30;;;;;;;11.98;66.16;100327.20;107967;1289;21995;-63
2023/02/27 01:39:25;;;;;;;20.50;13.10;;;;;;;11.93;66.23;100324.32;108064;1289;21991;-62
2023/02/27 01:41:51;;;;;;;18.30;11.60;;;;;;;11.88;66.37;100320.36;107989;1289;22001;-62
2023/02/27 01:44:17;;;;;;;21.90;13.00;;;;;;;11.86;66.48;100318.98;108034;1289;21994;-66
2023/02/27 01:46:44;;;;;;;21.10;13.30;;;;;;;11.87;66.50;100325.14;108042;1289;22039;-62
2023/02/27 01:49:12;;;;;;;18.50;12.60;;;;;;;11.84;66.66;100329.58;107830;1289;21995;-66
2023/02/27 01:51:41;;;;;;;21.50;12.20;;;;;;;11.80;66.47;100334.56;107906;1289;21993;-62
2023/02/27 01:54:08;;;;;;;17.60;11.20;;;;;;;11.77;66.28;100339.89;108038;1289;22746;-66
2023/02/27 01:56:34;;;;;;;19.80;10.90;;;;;;;11.74;66.47;100341.69;107964;1289;21996;-65
2023/02/27 01:59:02;;;;;;;23.80;11.30;;;;;;;11.62;67.38;100337.67;108011;1289;22031;-62
2023/02/27 02:01:29;;;;;;;19.40;10.90;;;;;;;11.62;68.05;100330.13;107976;1289;22003;-66
2023/02/27 02:04:17;;;;;;;16.00;10.60;;;;;;;11.61;68.04;100330.86;108093;1289;21994;-66
2023/02/27 02:06:46;;;;;;;19.80;12.00;;;;;;;11.60;67.89;100340.17;107886;1289;22184;-62
2023/02/27 02:09:13;;;;;;;18.30;11.50;;;;;;;11.59;67.89;100342.14;107546;1289;379659;-62
2023/02/27 02:11:40;;;;;;;19.70;11.20;;;;;;;11.58;68.04;100348.48;107720;1289;22034;-62
2023/02/27 02:14:09;;;;;;;17.80;10.30;;;;;;;11.60;68.06;100338.08;107843;1289;22003;-62
2023/02/27 02:16:47;;;;;;;17.70;10.00;;;;;;;11.63;68.16;100332.23;108006;1289;24019;-62
2023/02/27 02:19:38;;;;;;;16.80;10.40;;;;;;;11.65;67.97;100330.98;107822;1289;22446;-66
2023/02/27 02:22:29;;;;;;;19.30;10.40;;;;;;;11.62;68.05;100334.17;107977;1281;22004;-66
2023/02/27 02:25:32;;;;;;;16.00;10.20;;;;;;;11.57;68.02;100341.63;107993;1289;22001;-62
2023/02/27 02:28:19;;;;;;;19.10;11.00;;;;;;;11.50;68.07;100346.50;107809;1290;22000;-62
2023/02/27 02:31:03;;;;;;;16.10;10.20;;;;;;;11.48;68.04;100344.77;107869;1289;22000;-66
2023/02/27 02:33:35;;;;;;;19.00;11.00;;;;;;;11.44;68.07;100339.04;107790;1289;21999;-66
2023/02/27 02:36:09;;;;;;;17.30;10.20;;;;;;;11.41;68.23;100344.20;107824;1290;22006;-65
2023/02/27 02:38:52;;;;;;;16.40;9.90;;;;;;;11.39;68.26;100340.70;107815;1289;21995;-66
2023/02/27 02:41:24;;;;;;;14.80;9.10;;;;;;;11.38;68.41;100340.02;107835;1290;22458;-61
2023/02/27 02:43:55;;;;;;;15.30;9.40;;;;;;;11.40;68.45;100341.23;107856;1289;22015;-61
2023/02/27 02:46:34;;;;;;;19.50;11.30;;;;;;;11.40;68.61;100337.52;107870;1277;21995;-66
2023/02/27 02:49:18;;;;;;;18.90;11.40;;;;;;;11.40;68.45;100329.98;107853;1289;22186;-61
2023/02/27 02:51:59;;;;;;;16.00;10.50;;;;;;;11.37;68.69;100329.84;107926;1289;21991;-61
2023/02/27 02:54:41;;;;;;;16.60;10.50;;;;;;;11.35;68.36;100337.97;107909;1289;22399;-65
2023/02/27 02:57:12;;;;;;;15.70;10.10;;;;;;;11.30;68.39;100346.11;107894;1289;22003;-65
2023/02/27 02:59:49;;;;;;;17.80;10.60;;;;;;;11.30;68.49;100347.34;107868;1289;22037;-61
2023/02/27 03:02:17;;;;;;;15.50;10.10;;;;;;;11.25;68.70;100352.16;107924;1289;22261;-61
2023/02/27 03:04:48;;;;;;;19.40;10.30;;;;;;;11.14;69.66;100358.83;107911;1289;22000;-61
2023/02/27 03:07:58;;;;;;;16.40;10.90;;;;;;;11.15;70.10;100359.35;108050;1289;21980;-61
2023/02/27 03:10:29;;;;;;;19.60;10.60;;;;;;;11.18;70.17;100360.71;107598;1289;22076;-63
2023/02/27 03:13:00;;;;;;;17.10;9.20;;;;;;;11.20;70.19;100361.56;106334;1289;1002980;-61
2023/02/27 03:15:43;;;;;;;14.50;9.30;;;;;;;11.20;70.12;100357.17;107667;1289;21995;-62
2023/02/27 03:18:18;;;;;;;16.70;8.60;;;;;;;11.17;69.79;100360.20;107936;1289;21990;-62
2023/02/27 03:20:56;;;;;;;12.60;8.50;;;;;;;11.16;70.08;100366.18;107860;1289;21994;-62
2023/02/27 03:23:49;;;;;;;12.90;8.30;;;;;;;11.15;70.03;100373.05;107878;1289;22463;-67
2023/02/27 03:26:20;;;;;;;13.70;9.10;;;;;;;11.16;69.92;100371.97;107956;1289;21992;-62
2023/02/27 03:29:00;;;;;;;18.10;9.40;;;;;;;11.16;70.00;100367.94;107859;1289;21969;-61
2023/02/27 03:31:33;;;;;;;15.60;9.10;;;;;;;11.15;69.99;100367.08;107894;1289;22259;-67
2023/02/27 03:34:12;;;;;;;14.70;8.10;;;;;;;11.14;69.97;100362.86;107959;1289;23499;-62
2023/02/27 03:36:50;;;;;;;12.00;7.30;;;;;;;11.17;69.96;100366.17;107941;1289;21998;-67
2023/02/27 03:39:37;;;;;;;13.90;7.90;;;;;;;11.16;70.14;100365.48;107967;1289;21981;-67
2023/02/27 03:42:09;;;;;;;13.60;8.30;;;;;;;11.15;70.11;100367.95;107919;1286;22180;-66
2023/02/27 03:44:36;;;;;;;10.90;8.20;;;;;;;11.14;70.09;100369.02;108082;1289;22008;-61
2023/02/27 03:47:02;;;;;;;12.60;8.80;;;;;;;11.07;70.00;100368.77;107880;1289;22001;-62
2023/02/27 03:49:27;;;;;;;11.20;7.50;;;;;;;11.07;70.22;100374.21;107713;1289;22226;-61
2023/02/27 03:51:53;;;;;;;11.20;6.90;;;;;;;11.08;70.33;100379.11;107963;1289;21992;-62
2023/02/27 03:54:40;;;;;;;12.00;7.10;;;;;;;11.09;70.30;100380.86;107951;1289;21997;-61
2023/02/27 03:57:07;;;;;;;13.90;7.40;;;;;;;11.11;70.25;100381.89;107903;1289;22003;-61
2023/02/27 03:59:33;;;;;;;10.50;6.30;;;;;;;11.09;70.09;100386.14;107979;1289;21998;-66
2023/02/27 04:01:59;;;;;;;10.40;6.60;;;;;;;11.08;70.23;100383.86;107936;1289;21992;-66
2023/02/27 04:04:26;;;;;;;10.70;7.40;;;;;;;11.07;70.20;100379.11;107898;1289;21986;-66
2023/02/27 04:10:14;;;;;;;12.00;7.50;;;;;;;11.07;69.87;100388.26;107915;1289;22147;-61
2023/02/27 04:13:04;;;;;;;10.70;6.80;;;;;;;11.03;69.89;100388.33;107898;1289;22003;-67
2023/02/27 04:16:10;;;;;;;11.70;7.10;;;;;;;11.00;69.93;100397.84;107898;1288;22001;-66
2023/02/27 04:19:07;;;;;;;12.20;6.80;;;;;;;11.00;70.11;100406.61;107918;1289;21997;-67
2023/02/27 04:21:51;;;;;;;10.90;6.60;;;;;;;11.04;70.30;100409.54;107909;1289;22002;-61
2023/02/27 04:24:38;;;;;;;12.60;7.80;;;;;;;11.10;70.52;100409.81;108024;1289;22036;-62
2023/02/27 04:27:21;;;;;;;11.50;7.40;;;;;;;11.13;70.48;100415.92;107944;1289;22018;-67
2023/02/27 04:29:54;;;;;;;13.40;7.50;;;;;;;11.14;70.37;100421.70;107986;1289;22004;-63
2023/02/27 04:32:30;;;;;;;11.10;7.10;;;;;;;11.14;70.35;100423.45;107962;1289;21995;-68
2023/02/27 04:34:58;;;;;;;10.10;7.50;;;;;;;11.16;70.31;100419.22;107915;1290;21999;-67
2023/02/27 04:37:39;;;;;;;11.00;7.30;;;;;;;11.15;70.35;100421.52;107901;1289;22011;-67
2023/02/27 04:40:06;;;;;;;;;;;;;;;11.12;70.25;100420.67;107876;1290;21978;-62
2023/02/27 04:42:34;;;;;;;11.60;7.40;;;;;;;11.13;70.32;100419.27;107964;1289;21992;-68
2023/02/27 04:45:04;;;;;;;12.40;7.90;;;;;;;11.13;70.43;100424.17;107895;1289;22001;-68
2023/02/27 04:47:37;;;;;;;10.30;7.40;;;;;;;11.13;70.45;100425.59;107945;1289;21996;-69
2023/02/27 04:50:10;;;;;;;14.20;7.90;;;;;;;11.10;70.15;100424.21;107937;1289;22001;-67
2023/02/27 04:53:07;;;;;;;14.20;7.10;;;;;;;11.10;70.85;100421.59;108018;1276;22054;-64
2023/02/27 04:55:44;;;;;;;13.00;7.00;;;;;;;11.16;71.19;100419.40;107995;1289;21998;-64
2023/02/27 04:58:14;;;;;;;12.70;6.40;;;;;;;11.21;70.93;100417.75;107985;1289;23125;-60
2023/02/27 05:00:41;;;;;;;13.30;7.10;;;;;;;11.24;70.76;100413.32;107779;1289;21994;-60
2023/02/27 05:03:15;;;;;;;14.60;7.40;;;;;;;11.26;71.00;100420.49;107882;1289;21995;-64
2023/02/27 05:05:42;;;;;;;13.10;7.50;;;;;;;11.30;70.83;100425.34;108011;1289;21996;-65
2023/02/27 05:08:13;;;;;;;14.30;7.00;;;;;;;11.31;70.87;100426.03;107990;1289;21987;-64
2023/02/27 05:10:44;;;;;;;13.50;7.50;;;;;;;11.32;70.84;100432.52;107917;1289;22003;-60
2023/02/27 05:13:19;;;;;;;11.30;6.90;;;;;;;11.35;70.77;100438.80;107842;1289;22004;-64
2023/02/27 05:15:56;;;;;;;11.80;7.10;;;;;;;11.36;70.74;100441.25;107956;1289;22005;-61
2023/02/27 05:18:22;;;;;;;15.00;7.70;;;;;;;11.37;70.97;100447.38;108053;1286;23628;-63
2023/02/27 05:20:54;;;;;;;11.90;7.50;;;;;;;11.38;70.99;100454.91;107923;1286;22003;-62
2023/02/27 05:23:41;;;;;;;13.50;8.70;;;;;;;11.40;70.71;100464.21;107994;1287;22467;-62
2023/02/27 05:26:33;;;;;;;12.50;7.40;;;;;;;11.44;70.44;100476.45;107916;1289;21995;-62
2023/02/27 05:29:12;;;;;;;12.60;7.50;;;;;;;11.44;70.21;100476.98;107896;1289;21996;-67
2023/02/27 05:31:54;;;;;;;11.00;7.40;;;;;;;11.45;70.30;100470.64;107954;1286;22001;-61
2023/02/27 05:34:40;;;;;;;13.90;7.70;;;;;;;11.47;70.36;100467.27;107795;1289;22009;-61
2023/02/27 05:37:29;;;;;;;13.90;7.40;;;;;;;11.47;70.22;100467.09;107864;1289;22035;-61
2023/02/27 05:39:55;;;;;;;11.50;8.20;;;;;;;11.44;70.20;100468.54;108035;1287;23101;-61
2023/02/27 05:42:27;;;;;;;14.20;8.70;;;;;;;11.43;70.21;100465.39;107734;1289;22101;-66
2023/02/27 05:44:55;;;;;;;13.10;7.70;;;;;;;11.43;70.37;100455.73;107994;1289;21996;-61
2023/02/27 05:47:23;;;;;;;12.40;8.10;;;;;;;11.41;70.41;100454.35;108048;1289;21996;-67
2023/02/27 05:50:06;;;;;;;13.70;8.40;;;;;;;11.40;70.53;100464.02;107860;1289;22056;-68
2023/02/27 05:52:32;;;;;;;13.00;8.00;;;;;;;11.42;70.87;100466.80;107827;1290;22016;-69
2023/02/27 05:55:06;;;;;;;13.80;7.60;;;;;;;11.44;70.74;100464.85;107643;1289;22009;-69
2023/02/27 05:57:41;;;;;;;13.10;8.20;;;;;;;11.44;70.88;100458.88;107859;1289;23621;-62
2023/02/27 06:00:13;;;;;;;13.20;8.10;;;;;;;11.43;70.96;100458.89;107995;1289;21985;-68
2023/02/27 06:02:40;;;;;;;14.30;8.90;;;;;;;11.42;70.80;100463.83;108010;1289;22009;-69
2023/02/27 06:05:06;;;;;;;12.30;8.30;;;;;;;11.43;70.77;100472.95;108177;1289;23619;-68
2023/02/27 06:07:33;;;;;;;14.20;8.70;;;;;;;11.41;71.12;100486.68;107919;1289;22005;-63
2023/02/27 06:10:02;;;;;;;;;;;;;;;11.43;71.32;100491.58;107938;1286;22000;-62
2023/02/27 06:12:28;;;;;;;15.70;8.50;;;;;;;11.45;71.25;100494.89;107959;1289;21998;-63
2023/02/27 06:14:54;;;;;;;16.10;8.90;;;;;;;11.48;71.18;100498.36;108028;1285;22001;-63
2023/02/27 06:17:23;;;;;;;14.40;8.40;;;;;;;11.49;71.12;100500.62;107972;1289;22005;-63
2023/02/27 06:19:49;;;;;;;13.70;9.20;;;;;;;11.51;71.14;100505.68;107801;1289;22002;-69
2023/02/27 06:22:15;;;;;;;14.90;9.10;;;;;;;11.55;71.17;100511.08;107950;1289;22085;-63
2023/02/27 06:24:42;;;;;;;15.10;9.20;;;;;;;11.59;71.34;100512.95;107939;1289;22002;-69
2023/02/27 06:27:08;;;;;;;15.70;8.80;;;;;;;11.60;71.12;100514.52;107966;1289;21996;-64
2023/02/27 06:29:34;;;;;;;13.30;8.10;;;;;;;11.58;71.18;100514.37;107939;1289;21999;-63
2023/02/27 06:31:59;;;;;;;13.30;8.70;;;;;;;11.58;71.24;100504.89;107925;1289;21993;-65
2023/02/27 06:34:25;;;;;;;15.70;9.10;;;;;;;11.59;71.50;100498.37;107919;1289;22005;-61
2023/02/27 06:36:53;;;;;;;17.60;10.30;;;;;;;11.58;71.57;100505.40;107999;1289;22004;-61
2023/02/27 06:39:19;;;;;;;18.00;10.00;;;;;;;11.55;71.40;100509.51;107900;1289;22084;-61
2023/02/27 06:41:44;;;;;;;16.50;9.60;;;;;;;11.54;71.27;100516.02;107889;1289;22039;-63
2023/02/27 06:44:10;;;;;;;17.10;9.70;;;;;;;11.50;71.13;100523.61;107902;1289;21997;-61
2023/02/27 06:46:36;;;;;;;16.30;10.20;;;;;;;11.50;71.38;100525.39;107897;1289;22001;-62
2023/02/27 06:49:02;;;;;;;15.50;9.00;;;;;;;11.47;71.18;100522.27;107967;1285;22005;-61
2023/02/27 06:51:29;;;;;;;17.10;9.90;;;;;;;11.42;71.16;100524.95;107924;1286;21997;-62
2023/02/27 06:53:55;;;;;;;14.60;9.80;;;;;;;11.39;71.39;100517.98;107915;1289;22467;-61
2023/02/27 06:56:22;;;;;;;17.10;9.80;;;;;;;11.35;71.51;100507.84;107923;1289;21998;-61
2023/02/27 06:58:48;;;;;;;18.50;9.60;;;;;;;11.34;71.47;100505.05;107908;1289;23082;-62
2023/02/27 07:01:14;;;;;;;15.80;9.70;;;;;;;11.33;71.56;100504.17;108015;1289;21987;-68
2023/02/27 07:03:39;;;;;;;16.20;9.30;;;;;;;11.33;71.70;100510.14;107924;1289;22033;-69
2023/02/27 07:06:10;;;;;;;17.00;10.40;;;;;;;11.32;71.46;100514.91;107932;1289;22003;-69
2023/02/27 07:08:37;;;;;;;18.80;11.10;;;;;;;11.30;71.81;100513.00;107828;1289;22248;-69
2023/02/27 07:11:03;;;;;;;16.70;10.70;;;;;;;11.30;71.79;100515.98;107980;1289;22776;-69
2023/02/27 07:13:29;;;;;;;18.80;11.30;;;;;;;11.28;72.00;100521.09;107912;1289;23639;-62
2023/02/27 07:15:55;;;;;;;15.00;9.90;;;;;;;11.24;71.95;100520.27;108057;1289;21993;-62
2023/02/27 07:18:21;;;;;;;16.00;10.60;;;;;;;11.19;71.80;100527.37;107931;1289;22001;-62
2023/02/27 07:20:50;;;;;;;18.60;11.30;;;;;;;11.16;71.87;100530.91;108006;1286;21991;-62
2023/02/27 07:23:17;;;;;;;17.70;11.30;;;;;;;11.16;72.09;100530.91;107986;1289;21997;-69
2023/02/27 07:25:42;;;;;;;19.70;11.00;;;;;;;11.17;72.13;100526.70;107997;1289;22033;-69
2023/02/27 07:28:09;;;;;;;16.80;10.50;;;;;;;11.19;72.44;100529.30;108024;1289;21990;-62
2023/02/27 07:30:34;;;;;;;16.00;9.70;;;;;;;11.23;72.75;100537.16;107971;1289;21995;-68
2023/02/27 07:33:01;;;;;;;16.50;11.10;;;;;;;11.25;72.65;100538.36;107963;1289;21990;-62
2023/02/27 07:35:28;;;;;;;16.60;11.30;;;;;;;11.26;72.19;100539.75;107952;1289;22149;-69
2023/02/27 07:37:55;;;;;;;18.40;11.90;;;;;;;11.27;71.71;100537.10;107940;1289;22000;-62
2023/02/27 07:40:21;;;;;;;18.40;11.60;;;;;;;11.28;71.90;100531.11;107942;1282;21991;-69
2023/02/27 07:42:50;;;;;;;20.00;11.60;;;;;;;11.27;71.75;100532.35;107866;1289;22001;-70
2023/02/27 07:45:21;;;;;;;18.30;11.00;;;;;;;11.28;71.91;100526.73;107854;1289;24026;-61
2023/02/27 07:47:47;;;;;;;19.80;11.00;;;;;;;11.32;72.64;100526.33;107987;1289;22002;-68
2023/02/27 07:50:13;;;;;;;18.20;10.70;;;;;;;11.37;72.50;100537.86;107949;1289;22197;-62
2023/02/27 07:52:40;;;;;;;16.70;10.00;;;;;;;11.40;72.40;100550.64;107988;1286;22000;-70
2023/02/27 07:55:07;;;;;;;19.80;11.40;;;;;;;11.44;72.66;100566.77;108027;1289;22006;-70
2023/02/27 07:57:33;;;;;;;16.80;10.80;;;;;;;11.44;72.75;100575.72;107967;1289;21995;-63
2023/02/27 07:59:59;;;;;;;18.10;10.40;;;;;;;11.47;72.50;100581.66;107959;1289;22461;-63
2023/02/27 08:02:25;;;;;;;17.30;9.90;;;;;;;11.52;72.36;100578.95;107195;1289;1002579;-69
2023/02/27 08:04:52;;;;;;;23.70;11.60;;;;;;;11.53;72.28;100574.19;108047;1289;21994;-63
2023/02/27 08:07:18;;;;;;;24.10;11.50;;;;;;;11.60;72.90;100566.73;107981;1289;21994;-68
2023/02/27 08:09:48;;;;;;;22.70;10.60;;;;;;;11.67;73.07;100553.10;107978;1289;21993;-63
2023/02/27 08:12:13;;;;;;;18.20;10.80;;;;;;;11.71;72.91;100545.13;107947;1289;21990;-65
2023/02/27 08:14:39;;;;;;;14.90;9.00;;;;;;;11.75;72.68;100545.77;107988;1289;21962;-67
2023/02/27 08:17:07;;;;;;;19.30;10.60;;;;;;;11.78;72.64;100543.61;107965;1289;22007;-64
2023/02/27 08:19:36;;;;;;;17.80;11.00;;;;;;;11.78;72.53;100538.70;108012;1289;21997;-68
2023/02/27 08:22:02;;;;;;;20.70;12.10;;;;;;;11.76;72.69;100535.73;107990;1289;22045;-65
2023/02/27 08:24:28;;;;;;;21.00;12.30;;;;;;;11.75;72.74;100533.45;108039;1289;21995;-63
2023/02/27 08:26:54;;;;;;;19.40;12.50;;;;;;;11.75;72.96;100531.35;107965;1289;22000;-64
2023/02/27 08:29:19;;;;;;;21.80;11.10;;;;;;;11.77;72.93;100530.80;107959;1278;22770;-64
2023/02/27 08:31:45;;;;;;;23.10;12.80;;;;;;;11.76;72.97;100536.09;107923;1289;22261;-68
2023/02/27 08:34:13;;;;;;;20.10;10.90;;;;;;;11.73;73.12;100541.05;107923;1289;22039;-64
2023/02/27 08:36:41;;;;;;;21.50;11.10;;;;;;;11.74;73.38;100542.63;107978;1288;23066;-64
2023/02/27 08:39:09;;;;;;;23.80;11.60;;;;;;;11.77;73.37;100544.34;107993;1289;22037;-64
2023/02/27 08:41:36;;;;;;;22.10;11.10;;;;;;;11.81;73.66;100545.52;107894;1288;22186;-64
2023/02/27 08:44:10;;;;;;;23.50;11.30;;;;;;;11.86;73.75;100545.44;107973;1289;22034;-68
2023/02/27 08:46:38;;;;;;;20.90;11.10;;;;;;;11.90;73.59;100541.86;107990;1289;22008;-69
2023/02/27 08:49:03;;;;;;;21.60;12.80;;;;;;;11.96;73.77;100545.81;107160;1289;1002248;-68
2023/02/27 08:51:29;;;;;;;21.40;12.20;;;;;;;12.01;73.86;100554.21;107965;1289;22020;-68
2023/02/27 08:53:57;;;;;;;20.50;12.00;;;;;;;12.05;73.62;100557.33;108047;1289;22000;-65
2023/02/27 08:56:25;;;;;;;21.60;11.70;;;;;;;12.11;73.70;100557.93;108002;1288;22005;-65
2023/02/27 08:58:51;;;;;;;19.20;10.80;;;;;;;12.14;73.57;100560.52;108017;1289;22008;-68
2023/02/27 09:01:18;;;;;;;18.40;9.90;;;;;;;12.14;73.19;100560.17;107950;1289;21999;-68
2023/02/27 09:03:44;;;;;;;17.80;10.10;;;;;;;12.09;72.93;100557.42;107975;1276;21993;-68
2023/02/27 09:06:10;;;;;;;18.10;11.50;;;;;;;12.06;72.96;100558.36;107986;1285;22004;-68
2023/02/27 09:08:36;;;;;;;20.70;11.50;;;;;;;12.07;73.56;100571.00;108000;1289;21998;-69
2023/02/27 09:11:01;;;;;;;20.70;12.80;;;;;;;12.10;73.55;100581.52;107956;1289;21996;-69
2023/02/27 09:13:27;;;;;;;17.70;10.50;;;;;;;12.14;73.76;100580.56;107967;1289;21998;-66
2023/02/27 09:15:53;;;;;;;20.70;11.80;;;;;;;12.18;73.68;100594.59;107973;1289;21998;-65
2023/02/27 09:18:19;;;;;;;18.60;10.60;;;;;;;12.22;73.45;100602.27;107910;1289;22031;-67
2023/02/27 09:20:45;;;;;;;20.70;10.60;;;;;;;12.25;73.38;100601.52;108031;1285;21995;-65
2023/02/27 09:23:11;;;;;;;17.70;10.80;;;;;;;12.28;73.13;100601.99;107927;1289;21990;-67
2023/02/27 09:25:37;;;;;;;18.50;11.50;;;;;;;12.29;73.29;100597.57;107962;1289;21999;-68
2023/02/27 09:28:04;;;;;;;18.30;11.80;;;;;;;12.32;73.38;100597.55;107788;1286;22054;-68
2023/02/27 09:30:32;;;;;;;20.50;12.90;;;;;;;12.34;73.10;100605.78;107953;1289;21992;-68
2023/02/27 09:32:58;;;;;;;16.70;11.50;;;;;;;12.34;73.14;100603.66;107940;1289;22033;-67
2023/02/27 09:35:27;;;;;;;17.60;11.40;;;;;;;12.33;72.91;100598.40;107928;1289;22224;-68
2023/02/27 09:37:53;;;;;;;21.30;11.40;;;;;;;12.32;72.72;100599.48;107959;1289;22039;-69
2023/02/27 09:40:23;;;;;;;19.90;10.90;;;;;;;12.32;73.00;100596.48;107022;1289;1002367;-66
2023/02/27 09:42:49;;;;;;;16.90;10.20;;;;;;;12.32;73.01;100590.15;107853;1286;21998;-66
2023/02/27 09:45:25;;;;;;;16.00;9.90;;;;;;;12.30;72.78;100593.69;107936;1289;21990;-66
2023/02/27 09:48:04;;;;;;;16.30;10.50;;;;;;;12.26;73.02;100594.63;107188;1289;1003268;-68
2023/02/27 09:50:37;;;;;;;18.90;12.10;;;;;;;12.27;73.32;100595.16;107890;1276;23819;-68
2023/02/27 09:53:12;;;;;;;21.70;13.30;;;;;;;12.23;73.05;100597.14;107983;1289;21991;-68
2023/02/27 09:55:40;;;;;;;18.10;11.50;;;;;;;12.18;72.69;100599.33;108000;1289;21960;-69
2023/02/27 09:58:30;;;;;;;24.00;11.60;;;;;;;12.15;72.65;100594.63;108112;1289;23716;-67
2023/02/27 10:01:20;;;;;;;21.60;12.00;;;;;;;12.12;72.99;100587.13;107876;1285;22000;-68
2023/02/27 10:04:14;;;;;;;19.70;10.90;;;;;;;12.12;73.37;100589.76;107970;1277;21993;-66
2023/02/27 10:06:51;;;;;;;18.50;9.90;;;;;;;12.14;73.50;100584.08;107989;1289;22016;-69
2023/02/27 10:09:41;;;;;;;18.60;11.50;;;;;;;12.14;73.54;100577.57;108042;1289;21993;-65
2023/02/27 10:12:10;;;;;;;;;;;;;;;12.11;73.74;100572.35;107915;1286;21974;-69
2023/02/27 10:14:47;;;;;;;20.80;13.30;;;;;;;12.10;73.72;100578.88;107892;1289;21988;-65
2023/02/27 10:17:37;;;;;;;20.80;12.40;;;;;;;12.11;73.83;100580.79;107906;1289;22006;-65
2023/02/27 10:20:08;;;;;;;20.40;12.20;;;;;;;12.15;73.94;100577.03;107933;1289;22148;-67
2023/02/27 10:22:40;;;;;;;19.10;11.40;;;;;;;12.21;74.02;100574.13;107950;1289;22005;-65
2023/02/27 10:25:12;;;;;;;18.10;10.60;;;;;;;12.25;73.95;100574.07;108014;1289;21998;-68
2023/02/27 10:27:40;;;;;;;17.90;10.60;;;;;;;12.25;73.97;100571.27;107175;1289;1002332;-68
2023/02/27 10:30:19;;;;;;;16.60;9.80;;;;;;;12.28;74.01;100571.03;107843;1286;22034;-69
2023/02/27 10:32:45;;;;;;;18.70;11.50;;;;;;;12.33;74.04;100570.60;108066;1289;22005;-65
2023/02/27 10:35:30;;;;;;;21.40;12.80;;;;;;;12.37;73.81;100566.31;107822;1286;22008;-69
2023/02/27 10:38:01;;;;;;;19.30;12.80;;;;;;;12.39;73.69;100550.77;107928;1289;22037;-65
2023/02/27 10:40:28;;;;;;;18.30;11.80;;;;;;;12.41;73.58;100540.91;107989;1289;21997;-69
2023/02/27 10:42:59;;;;;;;22.10;13.40;;;;;;;12.40;73.87;100542.67;107923;1289;22301;-69
2023/02/27 10:45:25;;;;;;;24.60;12.40;;;;;;;12.41;74.09;100548.10;107875;1286;22001;-68
2023/02/27 10:47:57;;;;;;;22.00;11.90;;;;;;;12.43;74.44;100548.42;107959;1289;22205;-68
2023/02/27 10:50:23;;;;;;;23.00;13.00;;;;;;;12.48;74.53;100553.27;108076;1289;22030;-65
2023/02/27 10:52:50;;;;;;;21.70;11.70;;;;;;;12.52;74.42;100555.67;107937;1289;22011;-68
2023/02/27 10:55:19;;;;;;;20.10;12.90;;;;;;;12.55;74.26;100558.61;108007;1289;22013;-68
2023/02/27 10:57:47;;;;;;;21.10;14.00;;;;;;;12.55;73.88;100561.77;108007;1289;22074;-69
2023/02/27 11:00:45;;;;;;;22.40;14.10;;;;;;;12.53;73.76;100567.45;107847;1289;22019;-65
2023/02/27 11:03:19;;;;;;;18.20;11.70;;;;;;;12.49;73.79;100578.95;107975;1289;22739;-69
2023/02/27 11:05:59;;;;;;;20.70;12.20;;;;;;;12.49;73.63;100584.77;107953;1289;22006;-66
2023/02/27 11:08:27;;;;;;;20.00;11.00;;;;;;;12.47;73.38;100592.36;107955;1286;21990;-65
2023/02/27 11:11:04;;;;;;;16.50;10.50;;;;;;;12.45;72.90;100606.29;107887;1288;23473;-65
2023/02/27 11:13:34;;;;;;;24.10;15.30;;;;;;;12.37;72.34;100617.86;107925;1289;23727;-65
2023/02/27 11:16:11;;;;;;;30.30;21.40;;;;;;;12.27;71.99;100616.79;107990;1289;22193;-70
2023/02/27 11:18:39;;;;;;;27.60;18.30;;;;;;;12.15;72.32;100602.54;108000;1285;23631;-62
2023/02/27 11:21:12;;;;;;;25.20;14.50;;;;;;;12.09;72.28;100582.05;107925;1286;22007;-62
2023/02/27 11:23:59;;;;;;;21.30;11.80;;;;;;;12.07;72.66;100570.30;108056;1289;21999;-62
2023/02/27 11:26:49;;;;;;;18.20;11.40;;;;;;;12.04;73.17;100561.38;107949;1289;22005;-71